Time;durP1;ratioP1;P1;durP2;ratioP2;P2;SDS_P1;SDS_P2;PMS_P1;PMS_P2;Temp;Humidity;BMP_temperature;BMP_pressure;BME280_temperature;BME280_humidity;BME280_pressure;Samples;Min_cycle;Max_cycle;Signal;HPM_P1;HPM_P2
2022/12/31 00:00:53;;;;;;;2.80;2.60;;;11.40;99.90;;;;;;463215;257;28191;-79
2022/12/31 00:02:54;;;;;;;2.70;2.50;;;11.50;99.90;;;;;;463188;257;28694;-79
2022/12/31 00:04:55;;;;;;;5.40;2.83;;;11.50;99.90;;;;;;463178;257;28732;-78
2022/12/31 00:06:57;;;;;;;3.10;2.80;;;11.50;99.90;;;;;;463240;257;28666;-79
2022/12/31 00:08:58;;;;;;;3.63;2.57;;;11.50;99.90;;;;;;463227;257;28143;-79
2022/12/31 00:10:59;;;;;;;2.97;2.77;;;11.50;99.90;;;;;;463195;257;27948;-78
2022/12/31 00:13:00;;;;;;;4.80;2.90;;;11.50;99.90;;;;;;463210;257;27938;-79
2022/12/31 00:15:02;;;;;;;8.17;2.70;;;11.50;99.90;;;;;;463184;257;28058;-79
2022/12/31 00:17:03;;;;;;;2.80;2.50;;;11.50;99.90;;;;;;463234;257;28213;-79
2022/12/31 00:19:04;;;;;;;4.37;2.83;;;11.60;99.90;;;;;;463215;257;28107;-78
2022/12/31 00:21:08;;;;;;;3.93;2.90;;;11.60;99.90;;;;;;463172;257;28253;-78
2022/12/31 00:23:09;;;;;;;2.50;2.30;;;11.60;99.90;;;;;;463200;257;28158;-79
2022/12/31 00:25:10;;;;;;;2.67;2.30;;;11.70;99.90;;;;;;463201;257;28059;-79
2022/12/31 00:27:12;;;;;;;5.47;2.30;;;11.70;99.90;;;;;;463159;257;28066;-79
2022/12/31 00:29:13;;;;;;;5.90;2.73;;;11.60;99.90;;;;;;463147;257;28221;-78
2022/12/31 00:31:14;;;;;;;2.47;2.27;;;11.70;99.90;;;;;;463178;257;28373;-78
2022/12/31 00:33:15;;;;;;;4.37;2.47;;;11.70;99.90;;;;;;463195;257;28099;-79
2022/12/31 00:35:17;;;;;;;2.53;2.33;;;11.70;99.90;;;;;;463193;257;28714;-79
2022/12/31 00:37:18;;;;;;;3.20;2.50;;;11.70;99.90;;;;;;463175;257;28589;-79
2022/12/31 00:39:19;;;;;;;5.70;2.70;;;11.70;99.90;;;;;;463153;257;30664;-78
2022/12/31 00:41:20;;;;;;;5.73;3.33;;;11.70;99.90;;;;;;463230;257;28198;-79
2022/12/31 00:43:22;;;;;;;2.67;2.47;;;11.70;99.90;;;;;;463226;257;28319;-79
2022/12/31 00:45:23;;;;;;;2.60;2.40;;;11.70;99.90;;;;;;463216;257;28187;-77
2022/12/31 00:47:25;;;;;;;3.77;2.70;;;11.70;99.90;;;;;;463230;257;28219;-78
2022/12/31 00:49:25;;;;;;;3.20;2.67;;;11.80;99.90;;;;;;463235;257;28241;-78
2022/12/31 00:51:27;;;;;;;2.50;2.30;;;11.80;99.90;;;;;;463231;257;28156;-79
2022/12/31 00:53:28;;;;;;;4.30;2.40;;;11.80;99.90;;;;;;463264;257;28261;-78
2022/12/31 00:55:29;;;;;;;2.83;2.50;;;11.80;99.90;;;;;;463238;257;28045;-79
2022/12/31 00:57:30;;;;;;;3.20;2.53;;;11.90;99.90;;;;;;463208;257;28104;-78
2022/12/31 00:59:32;;;;;;;2.63;2.30;;;11.90;99.90;;;;;;463205;257;29452;-79
2022/12/31 01:01:33;;;;;;;4.67;2.57;;;11.90;99.90;;;;;;463263;257;28605;-78
2022/12/31 01:03:34;;;;;;;5.60;2.30;;;11.90;99.90;;;;;;463263;257;28703;-80
2022/12/31 01:05:35;;;;;;;3.67;2.40;;;11.90;99.90;;;;;;463225;257;28161;-79
2022/12/31 01:07:37;;;;;;;6.60;2.60;;;11.90;99.90;;;;;;463260;257;28051;-79
2022/12/31 01:09:38;;;;;;;2.87;2.50;;;12.00;99.90;;;;;;463234;257;28271;-78
2022/12/31 01:11:39;;;;;;;2.50;2.30;;;12.00;99.90;;;;;;463262;257;28154;-79
2022/12/31 01:13:40;;;;;;;5.40;2.97;;;12.00;99.90;;;;;;463257;257;28223;-78
2022/12/31 01:15:42;;;;;;;3.90;2.33;;;12.00;99.90;;;;;;463255;257;28132;-78
2022/12/31 01:17:43;;;;;;;5.53;2.60;;;12.00;99.90;;;;;;463261;257;28165;-79
2022/12/31 01:19:44;;;;;;;2.60;2.40;;;12.00;99.90;;;;;;463265;257;28379;-78
2022/12/31 01:21:45;;;;;;;2.63;2.20;;;12.00;99.90;;;;;;463244;257;28385;-79
2022/12/31 01:23:47;;;;;;;3.23;2.47;;;12.10;99.90;;;;;;463244;257;28676;-78
2022/12/31 01:25:48;;;;;;;2.60;2.40;;;12.10;99.90;;;;;;463245;257;28833;-78
2022/12/31 01:27:49;;;;;;;3.20;2.40;;;12.00;99.90;;;;;;463220;257;28713;-79
2022/12/31 01:29:50;;;;;;;2.50;2.20;;;12.10;99.90;;;;;;463246;257;28850;-78
2022/12/31 01:31:52;;;;;;;3.23;2.47;;;12.00;99.90;;;;;;463248;257;28353;-79
2022/12/31 01:33:53;;;;;;;4.43;2.40;;;12.00;99.90;;;;;;463271;257;28293;-79
2022/12/31 01:35:54;;;;;;;4.33;2.10;;;12.00;99.90;;;;;;463134;257;28317;-78
2022/12/31 01:37:55;;;;;;;5.43;3.37;;;12.00;99.90;;;;;;463241;257;28524;-79
2022/12/31 01:39:57;;;;;;;3.63;2.33;;;12.00;99.90;;;;;;463189;257;28434;-78
2022/12/31 01:41:58;;;;;;;4.40;2.60;;;12.00;99.90;;;;;;463240;257;28509;-79
2022/12/31 01:43:59;;;;;;;2.60;2.30;;;12.00;99.90;;;;;;463235;257;28426;-78
2022/12/31 01:46:00;;;;;;;6.13;2.33;;;12.00;99.90;;;;;;463235;257;28402;-79
2022/12/31 01:48:02;;;;;;;2.63;2.43;;;12.10;99.90;;;;;;463217;257;28887;-79
2022/12/31 01:50:03;;;;;;;2.20;2.00;;;12.10;99.90;;;;;;463199;257;28841;-78
2022/12/31 01:52:04;;;;;;;4.70;2.30;;;12.10;99.90;;;;;;463209;257;29117;-79
2022/12/31 01:54:05;;;;;;;3.70;2.20;;;12.10;99.90;;;;;;463262;257;28746;-78
2022/12/31 01:56:07;;;;;;;2.90;2.60;;;12.00;99.90;;;;;;463224;257;28253;-78
2022/12/31 01:58:08;;;;;;;2.57;2.37;;;12.10;99.90;;;;;;463217;257;28068;-78
2022/12/31 02:00:10;;;;;;;2.63;2.30;;;12.00;99.90;;;;;;463213;257;28463;-79
2022/12/31 02:02:10;;;;;;;2.10;2.00;;;12.00;99.90;;;;;;463231;257;28406;-78
2022/12/31 02:04:12;;;;;;;3.53;2.13;;;12.00;99.90;;;;;;463225;257;28482;-79
2022/12/31 02:06:13;;;;;;;6.23;2.40;;;12.10;99.90;;;;;;463203;257;28540;-78
2022/12/31 02:08:14;;;;;;;3.13;2.20;;;12.10;99.90;;;;;;463184;257;28465;-78
2022/12/31 02:10:15;;;;;;;4.37;2.50;;;12.10;99.90;;;;;;463198;257;28461;-79
2022/12/31 02:12:17;;;;;;;2.80;1.83;;;12.10;99.90;;;;;;463205;257;28880;-78
2022/12/31 02:14:18;;;;;;;3.10;2.20;;;12.10;99.90;;;;;;463227;257;28781;-79
2022/12/31 02:16:19;;;;;;;3.23;1.67;;;12.10;99.90;;;;;;463202;256;28758;-78
2022/12/31 02:18:20;;;;;;;5.50;2.37;;;12.00;99.90;;;;;;463197;257;28404;-79
2022/12/31 02:20:22;;;;;;;3.07;2.50;;;11.90;99.90;;;;;;463245;257;28400;-78
2022/12/31 02:22:23;;;;;;;3.40;2.20;;;11.80;99.90;;;;;;463246;257;28031;-78
2022/12/31 02:24:24;;;;;;;3.17;2.40;;;11.80;99.90;;;;;;463224;257;28652;-78
2022/12/31 02:26:25;;;;;;;3.83;2.77;;;11.80;99.90;;;;;;463225;257;28266;-78
2022/12/31 02:28:27;;;;;;;4.40;2.43;;;11.70;99.90;;;;;;463220;257;28294;-78
2022/12/31 02:30:28;;;;;;;2.87;2.40;;;11.70;99.90;;;;;;463250;257;28421;-78
2022/12/31 02:32:29;;;;;;;2.43;2.13;;;11.70;99.90;;;;;;463224;257;28184;-78
2022/12/31 02:34:30;;;;;;;2.97;2.13;;;11.70;99.90;;;;;;463233;257;28490;-79
2022/12/31 02:36:32;;;;;;;3.27;2.70;;;11.70;99.90;;;;;;463245;257;28477;-78
2022/12/31 02:38:33;;;;;;;2.63;2.43;;;11.70;99.90;;;;;;463235;257;28651;-78
2022/12/31 02:40:35;;;;;;;2.60;2.03;;;;;;;;;;463263;257;28928;-78
2022/12/31 02:42:37;;;;;;;2.70;2.50;;;11.70;99.90;;;;;;463258;257;27282;-79
2022/12/31 02:44:38;;;;;;;3.50;2.60;;;11.70;99.90;;;;;;463268;257;28556;-78
2022/12/31 02:46:39;;;;;;;5.30;2.80;;;11.70;99.90;;;;;;463245;257;28495;-78
2022/12/31 02:48:40;;;;;;;4.17;2.97;;;11.80;99.90;;;;;;463228;257;28812;-79
2022/12/31 02:50:54;;;;;;;3.90;2.13;;;11.80;99.90;;;;;;463262;257;28637;-78
2022/12/31 02:52:43;;;;;;;2.70;2.40;;;11.80;99.90;;;;;;462401;257;28982;-78
2022/12/31 02:54:44;;;;;;;4.73;2.10;;;11.80;99.90;;;;;;463217;257;28176;-78
2022/12/31 02:56:45;;;;;;;5.20;2.53;;;11.80;99.90;;;;;;463216;257;28411;-77
2022/12/31 03:03:10;;;;;;;4.97;2.63;;;11.80;99.90;;;;;;451788;257;28153;-78
2022/12/31 03:05:13;;;;;;;4.97;2.47;;;;;;;;;;463232;257;28310;-79
2022/12/31 03:07:14;;;;;;;3.07;2.63;;;11.80;99.90;;;;;;463228;257;27478;-78
2022/12/31 03:09:15;;;;;;;3.80;2.47;;;11.90;99.90;;;;;;463252;257;28737;-81
2022/12/31 03:12:45;;;;;;;5.00;2.50;;;11.90;99.90;;;;;;463248;257;28770;-78
2022/12/31 03:13:18;;;;;;;2.80;2.13;;;11.90;99.90;;;;;;461720;257;28402;-78
2022/12/31 03:15:19;;;;;;;3.30;2.20;;;11.90;99.90;;;;;;463251;257;28332;-78
2022/12/31 03:17:20;;;;;;;3.63;2.37;;;12.00;99.90;;;;;;463251;257;28251;-79
2022/12/31 03:26:20;;;;;;;3.00;1.93;;;12.00;99.90;;;;;;463182;257;28633;-76
2022/12/31 03:28:21;;;;;;;3.90;2.33;;;12.10;99.90;;;;;;463199;257;28170;-79
2022/12/31 03:30:22;;;;;;;5.33;2.10;;;12.10;99.90;;;;;;463235;257;28413;-78
2022/12/31 03:32:24;;;;;;;6.63;2.30;;;12.20;99.90;;;;;;463240;257;28363;-78
2022/12/31 03:34:25;;;;;;;2.90;2.50;;;12.20;99.90;;;;;;463225;257;28316;-78
2022/12/31 03:36:26;;;;;;;3.27;2.83;;;12.20;99.90;;;;;;463227;257;28498;-78
2022/12/31 03:38:27;;;;;;;3.57;2.00;;;12.20;99.90;;;;;;463201;257;28387;-79
2022/12/31 03:40:29;;;;;;;3.83;2.07;;;12.20;99.90;;;;;;463231;257;28873;-78
2022/12/31 03:42:30;;;;;;;2.53;2.33;;;12.20;99.90;;;;;;463226;257;28908;-78
2022/12/31 03:44:31;;;;;;;3.70;1.90;;;12.30;99.90;;;;;;463233;257;28781;-78
2022/12/31 03:46:32;;;;;;;3.47;2.10;;;12.40;99.90;;;;;;463191;257;28212;-79
2022/12/31 03:48:34;;;;;;;2.73;1.67;;;12.30;99.90;;;;;;463209;257;28513;-79
2022/12/31 03:50:35;;;;;;;3.60;1.97;;;12.30;99.90;;;;;;463211;257;28540;-78
2022/12/31 03:52:36;;;;;;;3.13;2.20;;;12.30;99.90;;;;;;463215;257;28351;-78
2022/12/31 03:54:37;;;;;;;4.50;2.10;;;12.40;99.90;;;;;;463210;257;28354;-79
2022/12/31 03:56:39;;;;;;;2.20;2.00;;;12.40;99.90;;;;;;463229;257;28065;-78
2022/12/31 03:58:40;;;;;;;3.40;2.20;;;12.40;99.90;;;;;;463238;257;28497;-79
2022/12/31 04:00:41;;;;;;;2.83;2.47;;;12.40;99.90;;;;;;463222;256;28819;-79
2022/12/31 04:02:42;;;;;;;2.10;1.90;;;12.50;99.90;;;;;;463229;257;29347;-78
2022/12/31 04:04:44;;;;;;;2.80;1.97;;;12.50;99.90;;;;;;463214;257;29079;-78
2022/12/31 04:06:45;;;;;;;3.13;2.10;;;12.50;99.90;;;;;;463220;257;29036;-79
2022/12/31 04:08:46;;;;;;;2.90;2.13;;;12.40;99.90;;;;;;463223;257;28341;-78
2022/12/31 04:10:47;;;;;;;6.30;2.17;;;12.40;99.90;;;;;;463242;257;28294;-78
2022/12/31 04:12:49;;;;;;;3.60;2.10;;;12.50;99.90;;;;;;463225;257;28545;-79
2022/12/31 04:14:50;;;;;;;5.23;2.07;;;12.40;99.90;;;;;;463222;257;28761;-78
2022/12/31 04:16:52;;;;;;;2.33;1.87;;;;;;;;;;463192;257;28538;-79
2022/12/31 04:18:54;;;;;;;4.50;2.00;;;12.30;99.90;;;;;;463206;257;27553;-78
2022/12/31 04:20:55;;;;;;;2.80;2.00;;;12.30;99.90;;;;;;463225;257;28398;-79
2022/12/31 04:22:56;;;;;;;2.70;1.83;;;12.30;99.90;;;;;;463229;257;28568;-78
2022/12/31 04:24:57;;;;;;;3.73;1.93;;;12.30;99.90;;;;;;463223;257;28413;-78
2022/12/31 04:26:59;;;;;;;4.40;2.17;;;12.30;99.90;;;;;;463251;257;28025;-79
2022/12/31 04:29:00;;;;;;;2.90;2.13;;;12.30;99.90;;;;;;463243;257;28401;-79
2022/12/31 04:31:03;;;;;;;3.13;1.83;;;12.40;99.90;;;;;;463251;257;28652;-78
2022/12/31 04:33:02;;;;;;;2.20;2.00;;;12.40;99.90;;;;;;463169;257;28394;-79
2022/12/31 04:35:04;;;;;;;4.07;1.83;;;12.40;99.90;;;;;;463217;256;28310;-78
2022/12/31 04:37:05;;;;;;;2.00;1.80;;;12.50;99.90;;;;;;463211;257;29383;-79
2022/12/31 04:39:06;;;;;;;3.00;1.60;;;12.40;99.90;;;;;;463205;257;28803;-78
2022/12/31 04:41:16;;;;;;;3.13;2.43;;;12.40;99.90;;;;;;463225;257;29011;-78
2022/12/31 04:43:18;;;;;;;2.40;2.20;;;12.40;99.90;;;;;;463242;257;28591;-78
2022/12/31 04:45:19;;;;;;;2.20;2.00;;;12.50;99.90;;;;;;463210;257;28754;-79
2022/12/31 04:47:20;;;;;;;1.90;1.80;;;12.60;99.90;;;;;;463216;257;28619;-79
2022/12/31 04:49:21;;;;;;;2.10;1.90;;;12.60;99.90;;;;;;463203;257;28400;-78
2022/12/31 04:51:23;;;;;;;1.97;1.80;;;12.60;99.90;;;;;;463236;257;28408;-79
2022/12/31 04:53:24;;;;;;;4.30;2.03;;;12.60;99.90;;;;;;463218;257;28185;-80
2022/12/31 04:55:25;;;;;;;2.60;1.60;;;12.60;99.90;;;;;;463232;257;28348;-79
2022/12/31 04:57:26;;;;;;;6.90;2.00;;;12.60;99.90;;;;;;463230;257;28160;-80
2022/12/31 04:59:28;;;;;;;1.80;1.70;;;12.60;99.90;;;;;;463202;257;28513;-79
2022/12/31 05:01:29;;;;;;;2.43;1.93;;;12.60;99.90;;;;;;463173;257;28556;-79
2022/12/31 05:03:30;;;;;;;1.80;1.70;;;12.70;99.90;;;;;;463221;257;28524;-79
2022/12/31 05:05:31;;;;;;;3.93;2.00;;;12.60;99.90;;;;;;463183;257;28972;-78
2022/12/31 05:07:33;;;;;;;1.60;1.50;;;12.60;99.90;;;;;;463224;257;28555;-79
2022/12/31 05:09:34;;;;;;;3.50;2.03;;;12.60;99.90;;;;;;463201;257;28607;-79
2022/12/31 05:11:36;;;;;;;3.23;2.00;;;12.60;99.90;;;;;;463224;257;28650;-78
2022/12/31 05:13:36;;;;;;;2.27;1.93;;;12.60;99.90;;;;;;463186;257;28334;-79
2022/12/31 05:15:38;;;;;;;4.10;1.90;;;12.60;99.90;;;;;;463212;257;28381;-78
2022/12/31 05:17:39;;;;;;;3.20;2.20;;;12.70;99.90;;;;;;463208;257;28628;-78
2022/12/31 05:19:40;;;;;;;3.47;1.90;;;12.70;99.90;;;;;;463225;257;28118;-79
2022/12/31 05:21:41;;;;;;;2.90;1.73;;;12.70;99.90;;;;;;463196;257;28449;-78
2022/12/31 05:23:43;;;;;;;2.17;1.83;;;12.80;99.90;;;;;;463237;257;28907;-79
2022/12/31 05:25:44;;;;;;;3.07;1.53;;;12.80;99.90;;;;;;463243;257;28310;-78
2022/12/31 05:27:45;;;;;;;2.10;2.00;;;12.80;99.90;;;;;;463235;257;29686;-79
2022/12/31 05:29:46;;;;;;;1.90;1.80;;;12.80;99.90;;;;;;463206;257;28651;-79
2022/12/31 05:31:48;;;;;;;2.70;2.33;;;12.80;99.90;;;;;;463228;257;28823;-79
2022/12/31 05:33:49;;;;;;;2.50;1.97;;;12.80;99.90;;;;;;463250;257;28991;-78
2022/12/31 05:35:50;;;;;;;1.97;1.67;;;12.80;99.90;;;;;;463243;257;28614;-79
2022/12/31 05:37:51;;;;;;;1.93;1.83;;;12.70;99.90;;;;;;463289;257;28361;-79
2022/12/31 05:39:53;;;;;;;1.90;1.80;;;12.70;99.90;;;;;;463263;257;28029;-79
2022/12/31 05:41:54;;;;;;;2.30;2.10;;;12.70;99.90;;;;;;463229;257;28328;-79
2022/12/31 05:43:55;;;;;;;3.53;2.00;;;12.70;99.90;;;;;;463228;257;28941;-78
2022/12/31 05:45:56;;;;;;;2.10;2.00;;;12.80;99.90;;;;;;463235;257;28438;-79
2022/12/31 05:47:58;;;;;;;2.30;1.90;;;12.80;99.90;;;;;;463272;257;28588;-79
2022/12/31 05:49:59;;;;;;;4.27;2.60;;;12.70;99.90;;;;;;463274;257;28168;-78
2022/12/31 05:52:00;;;;;;;2.27;2.00;;;12.80;99.90;;;;;;463210;257;28550;-78
2022/12/31 05:54:01;;;;;;;2.63;2.03;;;12.70;99.90;;;;;;463226;257;29117;-78
2022/12/31 05:56:03;;;;;;;6.50;2.07;;;12.70;99.90;;;;;;463202;257;29282;-78
2022/12/31 05:58:04;;;;;;;4.67;2.40;;;12.70;99.90;;;;;;463235;257;28321;-79
2022/12/31 06:00:05;;;;;;;4.30;2.40;;;12.80;99.90;;;;;;463237;257;28183;-78
2022/12/31 06:02:06;;;;;;;2.37;2.17;;;12.80;99.90;;;;;;463244;257;28149;-78
2022/12/31 06:04:08;;;;;;;2.60;2.27;;;12.80;99.90;;;;;;463218;257;28286;-78
2022/12/31 06:06:09;;;;;;;4.20;2.40;;;12.80;99.90;;;;;;463255;257;28089;-78
2022/12/31 06:08:10;;;;;;;2.30;2.20;;;12.80;99.90;;;;;;463254;256;28344;-78
2022/12/31 06:10:11;;;;;;;4.17;2.33;;;12.80;99.90;;;;;;463242;257;28611;-79
2022/12/31 06:12:13;;;;;;;4.17;2.50;;;12.80;99.90;;;;;;463214;257;28414;-78
2022/12/31 06:14:14;;;;;;;3.90;2.43;;;12.70;99.90;;;;;;463162;257;29331;-78
2022/12/31 06:16:15;;;;;;;2.50;2.13;;;12.70;99.90;;;;;;463237;257;28841;-79
2022/12/31 06:18:16;;;;;;;3.50;2.80;;;12.70;99.90;;;;;;463244;257;28570;-78
2022/12/31 06:20:18;;;;;;;6.60;2.43;;;12.70;99.90;;;;;;463222;257;28315;-79
2022/12/31 06:22:19;;;;;;;3.40;2.40;;;12.70;99.90;;;;;;463214;257;28856;-79
2022/12/31 06:24:20;;;;;;;4.03;2.50;;;12.60;99.90;;;;;;463246;257;28026;-79
2022/12/31 06:26:21;;;;;;;3.30;2.00;;;12.70;99.90;;;;;;463228;257;28434;-78
2022/12/31 06:28:23;;;;;;;3.00;2.03;;;12.70;99.90;;;;;;463208;257;28601;-80
2022/12/31 06:30:24;;;;;;;3.17;2.23;;;12.70;99.90;;;;;;463231;257;27895;-79
2022/12/31 06:32:25;;;;;;;2.83;2.07;;;12.70;99.90;;;;;;463218;257;28110;-79
2022/12/31 06:34:26;;;;;;;5.40;2.50;;;12.70;99.90;;;;;;463203;257;28314;-78
2022/12/31 06:36:28;;;;;;;5.40;2.50;;;12.70;99.90;;;;;;463225;257;28963;-79
2022/12/31 06:38:29;;;;;;;2.63;2.23;;;12.60;99.90;;;;;;463241;257;28904;-79
2022/12/31 06:40:30;;;;;;;2.40;2.20;;;12.60;99.90;;;;;;463233;257;28562;-79
2022/12/31 06:42:31;;;;;;;2.50;2.10;;;12.60;99.90;;;;;;463192;257;28929;-79
2022/12/31 06:44:33;;;;;;;4.13;2.40;;;12.60;99.90;;;;;;463246;256;28386;-78
2022/12/31 06:46:34;;;;;;;2.50;2.30;;;12.60;99.90;;;;;;463281;257;28119;-78
2022/12/31 06:48:35;;;;;;;2.63;2.40;;;12.60;99.90;;;;;;463280;257;28268;-79
2022/12/31 06:50:36;;;;;;;5.90;2.37;;;12.60;99.90;;;;;;463279;257;28273;-79
2022/12/31 06:52:38;;;;;;;3.10;2.20;;;12.50;99.90;;;;;;463264;257;28467;-78
2022/12/31 06:54:40;;;;;;;2.50;2.20;;;;;;;;;;463238;257;28912;-78
2022/12/31 06:56:41;;;;;;;5.93;2.50;;;12.50;99.90;;;;;;463239;257;27272;-79
2022/12/31 06:58:43;;;;;;;3.63;2.20;;;12.50;99.90;;;;;;463251;257;28397;-79
2022/12/31 07:00:44;;;;;;;3.10;2.13;;;12.50;99.90;;;;;;463237;257;28563;-79
2022/12/31 07:02:45;;;;;;;4.80;2.17;;;12.50;99.90;;;;;;463213;257;28066;-79
2022/12/31 07:04:48;;;;;;;3.10;2.13;;;;;;;;;;463186;257;28874;-79
2022/12/31 07:06:49;;;;;;;2.80;2.10;;;12.50;99.90;;;;;;463242;257;27466;-79
2022/12/31 07:08:50;;;;;;;4.43;2.50;;;12.40;99.90;;;;;;463212;257;28361;-79
2022/12/31 07:10:51;;;;;;;2.63;2.43;;;12.30;99.90;;;;;;463198;257;28506;-78
2022/12/31 07:12:53;;;;;;;4.63;2.40;;;12.30;99.90;;;;;;463199;257;28604;-79
2022/12/31 07:14:54;;;;;;;3.23;2.30;;;12.30;99.90;;;;;;463242;257;28923;-79
2022/12/31 07:16:55;;;;;;;3.33;2.30;;;12.30;99.90;;;;;;463236;257;28517;-80
2022/12/31 07:18:56;;;;;;;4.73;2.53;;;12.30;99.90;;;;;;463234;257;28609;-78
2022/12/31 07:20:58;;;;;;;2.20;2.00;;;12.20;99.90;;;;;;463198;257;28313;-80
2022/12/31 07:22:59;;;;;;;2.27;2.07;;;12.20;99.90;;;;;;463221;257;28301;-79
2022/12/31 07:25:00;;;;;;;3.63;2.70;;;12.20;99.90;;;;;;463213;257;29380;-79
2022/12/31 07:27:01;;;;;;;4.33;2.80;;;12.20;99.90;;;;;;463172;257;28610;-78
2022/12/31 07:29:03;;;;;;;3.23;2.20;;;12.20;99.90;;;;;;463232;257;28679;-79
2022/12/31 07:31:04;;;;;;;3.20;2.50;;;12.20;99.90;;;;;;463223;257;28349;-78
2022/12/31 07:33:05;;;;;;;2.50;2.30;;;12.20;99.90;;;;;;463232;257;28996;-79
2022/12/31 07:35:06;;;;;;;6.53;2.80;;;12.30;99.90;;;;;;463218;257;28499;-79
2022/12/31 07:37:08;;;;;;;2.67;2.47;;;12.20;99.90;;;;;;463225;257;28536;-79
2022/12/31 07:39:09;;;;;;;2.47;2.30;;;12.20;99.90;;;;;;463229;257;28319;-79
2022/12/31 07:41:10;;;;;;;2.47;2.27;;;12.20;99.90;;;;;;463210;257;28126;-79
2022/12/31 07:43:11;;;;;;;7.30;2.87;;;12.30;99.90;;;;;;463223;257;28451;-79
2022/12/31 07:45:13;;;;;;;4.23;2.17;;;12.30;99.90;;;;;;463218;257;28824;-79
2022/12/31 07:47:14;;;;;;;7.50;2.67;;;12.20;99.90;;;;;;463212;257;28896;-79
2022/12/31 07:49:15;;;;;;;4.43;2.53;;;12.20;99.90;;;;;;463258;257;28787;-80
2022/12/31 07:51:16;;;;;;;5.10;2.90;;;12.20;99.90;;;;;;463260;257;28572;-80
2022/12/31 07:53:18;;;;;;;3.57;2.80;;;12.20;99.90;;;;;;463236;257;28896;-79
2022/12/31 07:55:19;;;;;;;5.13;2.63;;;12.30;99.90;;;;;;463240;257;28174;-79
2022/12/31 07:57:20;;;;;;;4.03;2.27;;;12.30;99.90;;;;;;463197;257;28234;-79
2022/12/31 07:59:22;;;;;;;4.63;2.70;;;12.40;99.90;;;;;;463290;257;28190;-79
2022/12/31 08:01:23;;;;;;;3.37;2.70;;;12.30;99.90;;;;;;463229;256;28115;-79
2022/12/31 08:03:24;;;;;;;6.80;2.70;;;12.30;99.90;;;;;;463207;257;28947;-79
2022/12/31 08:05:25;;;;;;;5.53;2.57;;;12.30;99.90;;;;;;463200;257;28411;-78
2022/12/31 08:07:26;;;;;;;4.70;2.43;;;12.40;99.90;;;;;;463192;257;28203;-80
2022/12/31 08:09:28;;;;;;;2.90;2.60;;;12.40;99.90;;;;;;463250;257;28485;-81
2022/12/31 08:11:29;;;;;;;3.93;2.43;;;12.50;99.90;;;;;;463217;257;28996;-79
2022/12/31 08:13:31;;;;;;;7.43;2.40;;;;;;;;;;463233;257;28837;-79
2022/12/31 08:15:34;;;;;;;3.40;2.50;;;;;;;;;;463216;257;26971;-80
2022/12/31 08:17:35;;;;;;;3.33;2.50;;;12.50;99.90;;;;;;463250;257;27606;-79
2022/12/31 08:19:36;;;;;;;7.87;3.00;;;12.60;99.90;;;;;;463222;257;28050;-80
2022/12/31 08:21:37;;;;;;;3.60;2.80;;;12.60;99.90;;;;;;463203;257;28592;-79
2022/12/31 08:23:39;;;;;;;3.77;2.40;;;12.50;99.90;;;;;;463205;257;28101;-80
2022/12/31 08:25:40;;;;;;;3.93;2.40;;;12.50;99.90;;;;;;463204;257;28078;-79
2022/12/31 08:27:41;;;;;;;5.37;2.40;;;12.60;99.90;;;;;;463232;257;28406;-80
2022/12/31 08:29:43;;;;;;;2.77;2.57;;;12.50;99.90;;;;;;463212;257;28581;-80
2022/12/31 08:31:46;;;;;;;4.87;2.63;;;12.50;99.90;;;;;;463213;257;28404;-80
2022/12/31 08:33:45;;;;;;;6.93;2.50;;;12.50;99.90;;;;;;463077;257;28542;-80
2022/12/31 08:35:46;;;;;;;7.30;2.90;;;12.60;99.90;;;;;;463170;257;28637;-80
2022/12/31 08:37:48;;;;;;;2.57;2.10;;;12.50;99.90;;;;;;463178;257;28867;-79
2022/12/31 08:39:49;;;;;;;6.40;2.30;;;12.60;99.90;;;;;;463189;257;28980;-78
2022/12/31 08:41:50;;;;;;;5.50;2.90;;;12.60;99.90;;;;;;463146;257;28872;-80
2022/12/31 08:43:51;;;;;;;3.53;2.50;;;12.70;99.90;;;;;;463176;257;28431;-79
2022/12/31 08:45:53;;;;;;;6.70;2.77;;;12.60;99.90;;;;;;463225;257;28063;-79
2022/12/31 08:47:54;;;;;;;2.60;2.40;;;12.60;99.90;;;;;;463237;257;28213;-80
2022/12/31 08:49:55;;;;;;;2.50;2.20;;;12.60;99.90;;;;;;463221;257;28153;-79
2022/12/31 08:51:56;;;;;;;2.90;2.63;;;12.60;99.90;;;;;;463189;257;28949;-80
2022/12/31 08:53:58;;;;;;;4.60;2.20;;;12.60;99.90;;;;;;463221;257;28824;-79
2022/12/31 08:55:59;;;;;;;4.00;2.47;;;12.70;99.90;;;;;;463208;257;28429;-79
2022/12/31 08:58:00;;;;;;;3.80;2.17;;;12.60;99.90;;;;;;463219;257;28753;-78
2022/12/31 09:00:01;;;;;;;4.37;2.43;;;12.70;99.90;;;;;;467302;246;28744;-79
2022/12/31 09:02:03;;;;;;;4.23;2.50;;;12.70;99.90;;;;;;479589;248;28979;-78
2022/12/31 09:04:04;;;;;;;8.23;2.43;;;12.70;99.90;;;;;;479568;248;28395;-79
2022/12/31 09:06:05;;;;;;;3.97;2.70;;;12.70;99.90;;;;;;479628;248;28119;-80
2022/12/31 09:08:06;;;;;;;3.63;2.50;;;12.70;99.90;;;;;;479636;248;28313;-79
2022/12/31 09:10:08;;;;;;;2.53;2.30;;;12.80;99.90;;;;;;479597;248;28563;-79
2022/12/31 09:12:09;;;;;;;3.00;2.30;;;12.80;99.90;;;;;;479598;248;28088;-80
2022/12/31 09:14:10;;;;;;;2.50;2.30;;;12.90;99.90;;;;;;479581;248;28563;-79
2022/12/31 09:16:11;;;;;;;3.13;2.30;;;12.90;99.90;;;;;;479600;248;28554;-79
2022/12/31 09:18:13;;;;;;;2.57;2.23;;;12.90;99.90;;;;;;479642;248;28627;-80
2022/12/31 09:20:14;;;;;;;3.57;2.13;;;12.90;99.90;;;;;;479607;248;28905;-80
2022/12/31 09:22:15;;;;;;;7.23;2.47;;;12.90;99.90;;;;;;479610;248;28778;-79
2022/12/31 09:24:16;;;;;;;3.33;1.97;;;12.90;99.90;;;;;;479580;248;28672;-78
2022/12/31 09:26:18;;;;;;;3.43;2.40;;;12.90;99.90;;;;;;479604;248;29891;-79
2022/12/31 09:28:19;;;;;;;3.20;2.00;;;13.00;99.90;;;;;;477381;248;36146;-80
2022/12/31 09:30:20;;;;;;;8.80;2.50;;;13.00;99.90;;;;;;479623;248;28942;-80
2022/12/31 09:32:21;;;;;;;4.50;2.07;;;13.00;99.90;;;;;;479628;248;28386;-80
2022/12/31 09:34:23;;;;;;;5.33;2.53;;;13.00;99.90;;;;;;479611;248;28349;-80
2022/12/31 09:36:24;;;;;;;3.33;2.23;;;12.90;99.90;;;;;;479612;248;28876;-80
2022/12/31 09:38:25;;;;;;;3.30;2.40;;;12.90;99.90;;;;;;479602;248;28830;-80
2022/12/31 09:40:26;;;;;;;3.60;2.23;;;12.90;99.90;;;;;;479641;248;29001;-79
2022/12/31 09:42:28;;;;;;;2.80;2.40;;;13.00;99.90;;;;;;479597;248;28779;-79
2022/12/31 09:44:30;;;;;;;5.20;2.47;;;;;;;;;;479616;248;28865;-80
2022/12/31 09:46:31;;;;;;;2.60;2.00;;;13.10;99.90;;;;;;479644;248;26612;-80
2022/12/31 09:48:33;;;;;;;4.17;2.10;;;13.10;99.90;;;;;;479626;248;28952;-80
2022/12/31 09:50:34;;;;;;;4.53;2.20;;;13.20;99.90;;;;;;479639;248;28290;-80
2022/12/31 09:52:35;;;;;;;3.10;2.20;;;13.30;99.90;;;;;;479618;248;28941;-80
2022/12/31 09:54:36;;;;;;;4.70;1.90;;;13.30;99.90;;;;;;479628;248;29291;-79
2022/12/31 09:56:38;;;;;;;3.53;2.30;;;13.30;99.90;;;;;;479617;248;28777;-80
2022/12/31 09:58:39;;;;;;;2.03;1.70;;;13.40;99.90;;;;;;479673;248;29088;-79
2022/12/31 10:00:40;;;;;;;3.20;2.10;;;13.50;99.90;;;;;;479610;248;28485;-80
2022/12/31 10:02:41;;;;;;;2.77;2.00;;;13.50;99.90;;;;;;479626;248;28460;-80
2022/12/31 10:04:43;;;;;;;3.77;1.90;;;13.50;99.90;;;;;;479665;248;28193;-79
2022/12/31 10:06:44;;;;;;;4.30;1.90;;;13.50;99.90;;;;;;479641;248;28300;-80
2022/12/31 10:08:46;;;;;;;3.33;1.90;;;13.50;99.90;;;;;;479654;248;28516;-79
2022/12/31 10:10:46;;;;;;;4.90;2.27;;;13.50;99.90;;;;;;479624;248;28181;-80
2022/12/31 10:12:48;;;;;;;6.00;2.23;;;13.60;99.90;;;;;;479601;248;28250;-80
2022/12/31 10:14:49;;;;;;;2.97;1.87;;;13.70;99.90;;;;;;479599;248;28200;-79
2022/12/31 10:16:50;;;;;;;2.20;1.73;;;13.70;99.90;;;;;;479601;248;28579;-79
2022/12/31 10:18:51;;;;;;;2.23;2.03;;;13.70;99.90;;;;;;479623;248;28717;-80
2022/12/31 10:20:53;;;;;;;4.13;2.17;;;13.60;99.90;;;;;;479613;248;28846;-79
2022/12/31 10:22:54;;;;;;;2.50;1.93;;;13.70;99.90;;;;;;479562;248;28793;-80
2022/12/31 10:24:55;;;;;;;2.67;2.20;;;13.70;99.90;;;;;;479588;248;28312;-80
2022/12/31 10:26:56;;;;;;;2.70;1.73;;;13.80;99.90;;;;;;479621;248;28328;-80
2022/12/31 10:28:58;;;;;;;2.10;2.00;;;13.80;99.90;;;;;;479654;248;28255;-80
2022/12/31 10:30:59;;;;;;;2.87;2.17;;;13.80;99.90;;;;;;479637;248;28325;-79
2022/12/31 10:33:00;;;;;;;8.33;1.90;;;13.90;99.90;;;;;;479648;248;28454;-80
2022/12/31 10:35:01;;;;;;;3.07;2.30;;;14.00;99.90;;;;;;479637;248;28887;-80
2022/12/31 10:37:03;;;;;;;2.80;1.80;;;14.00;99.90;;;;;;479645;248;28241;-80
2022/12/31 10:39:04;;;;;;;2.03;1.80;;;14.00;99.90;;;;;;479671;248;28892;-79
2022/12/31 10:41:05;;;;;;;2.67;1.80;;;14.10;99.90;;;;;;479645;248;28645;-79
2022/12/31 10:43:06;;;;;;;3.37;2.07;;;14.00;99.90;;;;;;479625;248;28773;-80
2022/12/31 10:45:08;;;;;;;3.00;1.90;;;14.20;99.90;;;;;;479621;248;28190;-79